createdAt,value
2019-05-20T18:36:43.318Z,845.56
2019-05-20T18:37:43.253Z,845.53
2019-05-20T18:38:43.217Z,845.52
2019-05-20T18:39:43.213Z,845.57
2019-05-20T18:40:43.182Z,845.54
2019-05-20T18:41:43.191Z,845.55
2019-05-20T18:42:43.185Z,845.55
2019-05-20T18:43:43.302Z,845.58
2019-05-20T18:44:43.147Z,845.57
2019-05-20T18:45:43.140Z,845.60
2019-05-20T18:46:43.156Z,845.57
2019-05-20T18:47:43.124Z,845.63
2019-05-20T18:48:43.107Z,845.61
2019-05-20T18:49:43.175Z,845.62
2019-05-20T18:50:43.082Z,845.57
2019-05-20T18:51:43.074Z,845.58
2019-05-20T18:52:43.068Z,845.59
2019-05-20T18:53:43.057Z,845.59
2019-05-20T18:54:43.051Z,845.61
2019-05-20T18:55:43.071Z,845.64
2019-05-20T18:56:43.062Z,845.65
2019-05-20T18:57:43.056Z,845.66
2019-05-20T18:58:43.002Z,845.69
2019-05-20T18:59:43.354Z,845.75
2019-05-20T19:00:42.980Z,845.79
2019-05-20T19:01:50.982Z,845.80
2019-05-20T19:02:48.122Z,845.81
2019-05-20T19:03:43.030Z,845.80
2019-05-20T19:04:42.931Z,845.83
2019-05-20T19:05:42.989Z,845.85
2019-05-20T19:06:42.916Z,845.84
2019-05-20T19:07:42.997Z,845.86
2019-05-20T19:08:43.004Z,845.92
2019-05-20T19:09:42.895Z,845.89
2019-05-20T19:10:42.882Z,845.96
2019-05-20T19:11:42.939Z,845.91
2019-05-20T19:12:42.855Z,846.00
2019-05-20T19:13:42.832Z,846.02
2019-05-20T19:14:42.873Z,845.99
2019-05-20T19:15:42.824Z,846.00
2019-05-20T19:16:42.828Z,846.05
2019-05-20T19:17:42.797Z,846.04
2019-05-20T19:18:42.820Z,845.97
2019-05-20T19:19:42.782Z,846.04
2019-05-20T19:20:42.800Z,845.99
2019-05-20T19:21:42.759Z,846.02
2019-05-20T19:22:42.802Z,846.00
2019-05-20T19:23:42.744Z,846.05
2019-05-20T19:24:42.728Z,846.07
2019-05-20T19:25:44.023Z,846.10
2019-05-20T19:26:42.748Z,846.09
2019-05-20T19:27:42.694Z,846.11
2019-05-20T19:28:42.711Z,846.13
2019-05-20T19:29:42.667Z,846.11
2019-05-20T19:30:42.674Z,846.10
2019-05-20T19:31:42.638Z,846.12
2019-05-20T19:32:42.666Z,846.15
2019-05-20T19:33:42.717Z,846.10
2019-05-20T19:34:42.618Z,846.14
2019-05-20T19:35:42.606Z,846.14
2019-05-20T19:36:42.596Z,846.17
2019-05-20T19:37:42.586Z,846.18
2019-05-20T19:38:42.605Z,846.16
2019-05-20T19:39:42.555Z,846.17
2019-05-20T19:40:42.553Z,846.22
2019-05-20T19:41:42.539Z,846.24
2019-05-20T19:42:42.524Z,846.23
2019-05-20T19:43:42.635Z,846.19
2019-05-20T19:44:42.551Z,846.22
2019-05-20T19:45:42.556Z,846.20
2019-05-20T19:46:42.573Z,846.28
2019-05-20T19:47:42.472Z,846.29
2019-05-20T19:48:42.466Z,846.25
2019-05-20T19:49:42.835Z,846.26
2019-05-20T19:50:42.470Z,846.29
2019-05-20T19:51:42.435Z,846.27
2019-05-20T19:52:42.473Z,846.27
2019-05-20T19:53:42.421Z,846.27
2019-05-20T19:54:42.436Z,846.34
2019-05-20T19:55:42.381Z,846.35
2019-05-20T19:56:42.408Z,846.34
2019-05-20T19:57:42.424Z,846.37
2019-05-20T19:58:42.366Z,846.36
2019-05-20T19:59:42.340Z,846.40
2019-05-20T20:00:42.379Z,846.36
2019-05-20T20:01:42.317Z,846.40
2019-05-20T20:02:42.430Z,846.39
2019-05-20T20:03:42.297Z,846.43
2019-05-20T20:04:42.301Z,846.43
2019-05-20T20:05:42.369Z,846.39
2019-05-20T20:06:42.316Z,846.41
2019-05-20T20:07:42.256Z,846.37
2019-05-20T20:08:42.249Z,846.41
2019-05-20T20:09:42.239Z,846.39
2019-05-20T20:10:42.225Z,846.38
2019-05-20T20:11:42.213Z,846.39
2019-05-20T20:12:42.256Z,846.43
2019-05-20T20:13:42.193Z,846.45
2019-05-20T20:14:42.186Z,846.47
2019-05-20T20:15:42.198Z,846.41
2019-05-20T20:16:42.194Z,846.40
2019-05-20T20:17:42.156Z,846.40
2019-05-20T20:18:42.150Z,846.44
2019-05-20T20:19:42.133Z,846.43
2019-05-20T20:20:42.125Z,846.40
2019-05-20T20:21:42.109Z,846.43
2019-05-20T20:22:42.137Z,846.44
2019-05-20T20:23:42.080Z,846.45
2019-05-20T20:24:42.071Z,846.42
2019-05-20T20:25:42.061Z,846.38
2019-05-20T20:26:42.050Z,846.38
2019-05-20T20:27:42.050Z,846.38
2019-05-20T20:28:42.071Z,846.42
2019-05-20T20:29:42.081Z,846.38
2019-05-20T20:30:42.016Z,846.38
2019-05-20T20:31:41.999Z,846.41
2019-05-20T20:32:41.998Z,846.38
2019-05-20T20:33:41.975Z,846.39
2019-05-20T20:34:42.064Z,846.41
2019-05-20T20:35:42.008Z,846.42
2019-05-20T20:36:41.995Z,846.41
2019-05-20T20:37:42.034Z,846.44
2019-05-20T20:38:41.930Z,846.42
2019-05-20T20:39:42.011Z,846.39
2019-05-20T20:40:41.903Z,846.43
2019-05-20T20:41:41.903Z,846.41
2019-05-20T20:42:41.923Z,846.45
2019-05-20T20:43:41.874Z,846.50
2019-05-20T20:44:41.867Z,846.49
2019-05-20T20:45:41.854Z,846.46
2019-05-20T20:46:41.836Z,846.51
2019-05-20T20:47:42.509Z,846.50
2019-05-20T20:48:41.855Z,846.49
2019-05-20T20:49:41.805Z,846.48
2019-05-20T20:50:41.808Z,846.45
2019-05-20T20:51:41.783Z,846.44
2019-05-20T20:52:41.780Z,846.42
2019-05-20T20:53:41.842Z,846.43
2019-05-20T20:54:41.792Z,846.40
2019-05-20T20:55:41.742Z,846.49
2019-05-20T20:56:41.814Z,846.42
2019-05-20T20:57:41.721Z,846.47
2019-05-20T20:58:41.711Z,846.44
2019-05-20T20:59:41.699Z,846.46
2019-05-20T21:00:41.728Z,846.46
2019-05-20T21:01:41.686Z,846.47
2019-05-20T21:02:52.898Z,846.47
2019-05-20T21:03:42.650Z,846.46
2019-05-20T21:04:41.741Z,846.49
2019-05-20T21:05:41.628Z,846.52
2019-05-20T21:06:41.719Z,846.50
2019-05-20T21:07:41.612Z,846.44
2019-05-20T21:08:41.597Z,846.49
2019-05-20T21:09:41.649Z,846.54
2019-05-20T21:10:41.586Z,846.54
2019-05-20T21:11:41.581Z,846.55
2019-05-20T21:12:41.610Z,846.52
2019-05-20T21:13:41.576Z,846.52
2019-05-20T21:14:41.536Z,846.52
2019-05-20T21:15:41.524Z,846.48
2019-05-20T21:16:41.515Z,846.48
2019-05-20T21:17:41.506Z,846.51
2019-05-20T21:18:41.707Z,846.46
2019-05-20T21:19:41.474Z,846.50
2019-05-20T21:20:41.477Z,846.50
2019-05-20T21:21:41.459Z,846.49
2019-05-20T21:22:41.452Z,846.53
2019-05-20T21:23:41.444Z,846.51
2019-05-20T21:24:41.462Z,846.52
2019-05-20T21:25:41.466Z,846.55
2019-05-20T21:26:41.412Z,846.54
2019-05-20T21:27:41.408Z,846.51
2019-05-20T21:28:41.472Z,846.54
2019-05-20T21:29:41.389Z,846.54
2019-05-20T21:30:41.361Z,846.58
2019-05-20T21:31:41.364Z,846.58
2019-05-20T21:32:41.349Z,846.59
2019-05-20T21:33:41.370Z,846.55
2019-05-20T21:34:41.321Z,846.57
2019-05-20T21:35:41.321Z,846.58
2019-05-20T21:36:47.746Z,846.57
2019-05-20T21:37:42.289Z,846.58
2019-05-20T21:38:41.300Z,846.63
2019-05-20T21:39:41.311Z,846.63
2019-05-20T21:40:41.258Z,846.58
2019-05-20T21:41:41.245Z,846.57
2019-05-20T21:42:41.236Z,846.53
2019-05-20T21:43:41.231Z,846.57
2019-05-20T21:44:41.237Z,846.54
2019-05-20T21:45:41.247Z,846.60
2019-05-20T21:46:41.205Z,846.64
2019-05-20T21:47:44.609Z,846.65
2019-05-20T21:48:41.188Z,846.62
2019-05-20T21:49:41.168Z,846.60
2019-05-20T21:50:41.159Z,846.62
2019-05-20T21:51:41.166Z,846.57
2019-05-20T21:52:41.135Z,846.62
2019-05-20T21:53:41.118Z,846.67
2019-05-20T21:54:41.111Z,846.66
2019-05-20T21:55:41.095Z,846.71
2019-05-20T21:56:41.123Z,846.71
2019-05-20T21:57:41.074Z,846.64
2019-05-20T21:58:41.063Z,846.65
2019-05-20T21:59:41.090Z,846.71
2019-05-20T22:00:41.050Z,846.72
2019-05-20T22:01:41.031Z,846.71
2019-05-20T22:02:41.021Z,846.69
2019-05-20T22:03:41.021Z,846.73
2019-05-20T22:04:41.031Z,846.75
2019-05-20T22:05:41.001Z,846.71
2019-05-20T22:06:40.981Z,846.68
2019-05-20T22:07:40.997Z,846.68
2019-05-20T22:08:41.000Z,846.67
2019-05-20T22:09:40.961Z,846.69
2019-05-20T22:10:40.958Z,846.68
2019-05-20T22:11:40.921Z,846.69
2019-05-20T22:12:40.908Z,846.67
2019-05-20T22:13:40.910Z,846.66
2019-05-20T22:14:40.927Z,846.61
2019-05-20T22:15:40.886Z,846.64
2019-05-20T22:16:40.906Z,846.61
2019-05-20T22:17:40.868Z,846.60
2019-05-20T22:18:40.845Z,846.64
2019-05-20T22:19:40.893Z,846.65
2019-05-20T22:20:40.827Z,846.67
2019-05-20T22:21:40.813Z,846.64
2019-05-20T22:22:40.841Z,846.66
2019-05-20T22:23:40.804Z,846.64
2019-05-20T22:24:40.806Z,846.65
2019-05-20T22:25:40.776Z,846.66
2019-05-20T22:26:40.922Z,846.67
2019-05-20T22:27:40.744Z,846.68
2019-05-20T22:28:40.778Z,846.67
2019-05-20T22:29:40.744Z,846.68
2019-05-20T22:30:40.720Z,846.67
2019-05-20T22:31:40.703Z,846.66
2019-05-20T22:32:40.702Z,846.65
2019-05-20T22:33:42.524Z,846.68
2019-05-20T22:34:52.615Z,846.72
2019-05-20T22:35:41.663Z,846.72
2019-05-20T22:36:40.691Z,846.72
2019-05-20T22:37:40.642Z,846.74
2019-05-20T22:38:40.632Z,846.76
2019-05-20T22:39:40.703Z,846.74
2019-05-20T22:40:40.611Z,846.72
2019-05-20T22:41:40.638Z,846.78
2019-05-20T22:42:40.618Z,846.78
2019-05-20T22:43:40.580Z,846.74
2019-05-20T22:44:40.561Z,846.78
2019-05-20T22:45:40.589Z,846.81
2019-05-20T22:46:40.550Z,846.78
2019-05-20T22:47:40.537Z,846.76
2019-05-20T22:48:40.522Z,846.76
2019-05-20T22:49:40.527Z,846.75
2019-05-20T22:50:40.506Z,846.70
2019-05-20T22:51:40.527Z,846.71
2019-05-20T22:52:40.478Z,846.69
2019-05-20T22:53:40.466Z,846.68
2019-05-20T22:54:40.499Z,846.69
2019-05-20T22:55:40.444Z,846.64
2019-05-20T22:56:40.436Z,846.61
2019-05-20T22:57:40.424Z,846.67
2019-05-20T22:58:40.552Z,846.66
2019-05-20T22:59:40.404Z,846.68
2019-05-20T23:00:40.441Z,846.68
2019-05-20T23:01:40.382Z,846.69
2019-05-20T23:02:40.392Z,846.71
2019-05-20T23:03:40.364Z,846.74
2019-05-20T23:04:40.347Z,846.66
2019-05-20T23:05:40.386Z,846.65
2019-05-20T23:06:40.330Z,846.73
2019-05-20T23:07:40.362Z,846.68
2019-05-20T23:08:40.311Z,846.69
2019-05-20T23:09:40.302Z,846.71
2019-05-20T23:10:40.299Z,846.68
2019-05-20T23:11:40.309Z,846.66
2019-05-20T23:12:40.282Z,846.63
2019-05-20T23:13:40.290Z,846.67
2019-05-20T23:14:40.291Z,846.64
2019-05-20T23:15:40.232Z,846.62
2019-05-20T23:16:40.219Z,846.67
2019-05-20T23:17:40.217Z,846.70
2019-05-20T23:18:40.210Z,846.67
2019-05-20T23:19:40.188Z,846.71
2019-05-20T23:20:40.230Z,846.69
2019-05-20T23:21:40.228Z,846.67
2019-05-20T23:22:40.158Z,846.70
2019-05-20T23:23:40.147Z,846.70
2019-05-20T23:24:40.137Z,846.67
2019-05-20T23:25:40.128Z,846.75
2019-05-20T23:26:40.114Z,846.66
2019-05-20T23:27:40.135Z,846.65
2019-05-20T23:28:40.096Z,846.70
2019-05-20T23:29:40.096Z,846.66
2019-05-20T23:30:40.112Z,846.66
2019-05-20T23:31:40.059Z,846.67
2019-05-20T23:32:40.054Z,846.63
2019-05-20T23:33:40.043Z,846.63
2019-05-20T23:34:40.038Z,846.64
2019-05-20T23:35:40.061Z,846.69
2019-05-20T23:36:40.004Z,846.67
2019-05-20T23:37:40.013Z,846.63
2019-05-20T23:38:39.993Z,846.62
2019-05-20T23:39:39.972Z,846.64
2019-05-20T23:40:39.999Z,846.67
2019-05-20T23:41:39.991Z,846.68
2019-05-20T23:42:39.944Z,846.69
2019-05-20T23:43:39.998Z,846.67
2019-05-20T23:44:39.921Z,846.61
2019-05-20T23:45:39.912Z,846.65
2019-05-20T23:46:39.901Z,846.65
2019-05-20T23:47:39.936Z,846.64
2019-05-20T23:48:39.879Z,846.70
2019-05-20T23:49:39.869Z,846.71
2019-05-20T23:50:39.868Z,846.68
2019-05-20T23:51:39.850Z,846.71
2019-05-20T23:52:39.841Z,846.66
2019-05-20T23:53:39.859Z,846.69
2019-05-20T23:54:39.809Z,846.70
2019-05-20T23:55:39.807Z,846.63
2019-05-20T23:56:39.787Z,846.66
2019-05-20T23:57:39.780Z,846.64
2019-05-20T23:58:39.771Z,846.64
2019-05-20T23:59:39.875Z,846.64
